Time;durP1;ratioP1;P1;durP2;ratioP2;P2;SDS_P1;SDS_P2;PMS_P1;PMS_P2;Temp;Humidity;BMP_temperature;BMP_pressure;BME280_temperature;BME280_humidity;BME280_pressure;Samples;Min_cycle;Max_cycle;Signal;HPM_P1;HPM_P2
2022/06/28 00:00:04;;;;;;;;;;;;;;;;;;5073650;28;19924;-68
2022/06/28 00:02:29;;;;;;;;;;;;;;;;;;5073962;28;19973;-68
2022/06/28 00:04:55;;;;;;;;;;;;;;;;;;5072645;28;19925;-69
2022/06/28 00:07:21;;;;;;;;;;;;;;;;;;5073335;28;19995;-69
2022/06/28 00:09:47;;;;;;;;;;;;;;;;;;5074116;28;19921;-69
2022/06/28 00:12:13;;;;;;;;;;;;;;;;;;5074064;28;19924;-69
2022/06/28 00:17:24;;;;;;;;;;;;;;;;;;5073934;28;20294;-68
2022/06/28 00:19:50;;;;;;;;;;;;;;;;;;5074055;28;20007;-68
2022/06/28 00:22:16;;;;;;;;;;;;;;;;;;5073126;28;19920;-68
2022/06/28 00:24:42;;;;;;;;;;;;;;;;;;5073642;28;20015;-68
2022/06/28 00:27:08;;;;;;;;;;;;;;;;;;5090816;28;19920;-68
2022/06/28 00:29:34;;;;;;;;;;;;;;;;;;5093283;28;19924;-68
2022/06/28 00:32:00;;;;;;;;;;;;;;;;;;5093954;28;19924;-68
2022/06/28 00:34:26;;;;;;;;;;;;;;;;;;5094100;28;19968;-68
2022/06/28 00:36:52;;;;;;;;;;;;;;;;;;5093250;28;19924;-68
2022/06/28 00:39:18;;;;;;;;;;;;;;;;;;5093949;28;20013;-68
2022/06/28 00:41:44;;;;;;;;;;;;;;;;;;5093632;28;20079;-68
2022/06/28 00:44:09;;;;;;;;;;;;;;;;;;5092666;28;19973;-68
2022/06/28 00:46:35;;;;;;;;;;;;;;;;;;5093834;28;19951;-68
2022/06/28 00:49:01;;;;;;;;;;;;;;;;;;5093485;28;19924;-68
2022/06/28 00:51:27;;;;;;;;;;;;;;;;;;5092524;28;20010;-68
2022/06/28 00:53:53;;;;;;;;;;;;;;;;;;5093632;28;20011;-68
2022/06/28 00:56:19;;;;;;;;;;;;;;;;;;5092051;28;19924;-68
2022/06/28 00:58:45;;;;;;;;;;;;;;;;;;5092763;28;19931;-68
2022/06/28 01:01:11;;;;;;;;;;;;;;;;;;5093491;28;20310;-68
2022/06/28 01:03:37;;;;;;;;;;;;;;;;;;5093550;28;19959;-68
2022/06/28 01:06:03;;;;;;;;;;;;;;;;;;5092634;28;19985;-68
2022/06/28 01:08:29;;;;;;;;;;;;;;;;;;5093472;28;19928;-68
2022/06/28 01:10:55;;;;;;;;;;;;;;;;;;5093215;28;19978;-68
2022/06/28 01:13:21;;;;;;;;;;;;;;;;;;5092778;28;20015;-68
2022/06/28 01:15:47;;;;;;;;;;;;;;;;;;5093178;28;19920;-68
2022/06/28 01:18:13;;;;;;;;;;;;;;;;;;5091585;28;20003;-68
2022/06/28 01:20:39;;;;;;;;;;;;;;;;;;5091161;28;19943;-68
2022/06/28 01:23:05;;;;;;;;;;;;;;;;;;5092708;28;19920;-68
2022/06/28 01:25:31;;;;;;;;;;;;;;;;;;5089457;28;20003;-68
2022/06/28 01:27:56;;;;;;;;;;;;;;;;;;5072735;28;19943;-68
2022/06/28 01:30:22;;;;;;;;;;;;;;;;;;5071881;28;19931;-68
2022/06/28 01:32:48;;;;;;;;;;;;;;;;;;5071110;28;20009;-68
2022/06/28 01:35:14;;;;;;;;;;;;;;;;;;5072203;28;19924;-68
2022/06/28 01:37:40;;;;;;;;;;;;;;;;;;5071877;28;19931;-68
2022/06/28 01:40:06;;;;;;;;;;;;;;;;;;5072534;28;19924;-68
2022/06/28 01:42:32;;;;;;;;;;;;;;;;;;5072127;28;19927;-68
2022/06/28 01:44:58;;;;;;;;;;;;;;;;;;5071418;28;19921;-68
2022/06/28 01:47:24;;;;;;;;;;;;;;;;;;5072415;28;19928;-68
2022/06/28 01:49:50;;;;;;;;;;;;;;;;;;5072364;28;19920;-68
2022/06/28 01:52:16;;;;;;;;;;;;;;;;;;5071499;28;20015;-68
2022/06/28 01:54:42;;;;;;;;;;;;;;;;;;5072255;28;20038;-68
2022/06/28 01:57:08;;;;;;;;;;;;;;;;;;5072239;28;19925;-68
2022/06/28 01:59:34;;;;;;;;;;;;;;;;;;5071304;28;19925;-68
2022/06/28 02:02:00;;;;;;;;;;;;;;;;;;5071669;28;20300;-68
2022/06/28 02:04:26;;;;;;;;;;;;;;;;;;5071564;28;19920;-68
2022/06/28 02:06:52;;;;;;;;;;;;;;;;;;5070036;28;19964;-68
2022/06/28 02:09:18;;;;;;;;;;;;;;;;;;5071732;28;19963;-68
2022/06/28 02:11:44;;;;;;;;;;;;;;;;;;5072103;28;19931;-68
2022/06/28 02:14:10;;;;;;;;;;;;;;;;;;5071179;28;20011;-68
2022/06/28 02:16:36;;;;;;;;;;;;;;;;;;5071991;28;20019;-68
2022/06/28 02:19:02;;;;;;;;;;;;;;;;;;5072081;28;19995;-68
2022/06/28 02:21:28;;;;;;;;;;;;;;;;;;5071223;28;19944;-68
2022/06/28 02:23:54;;;;;;;;;;;;;;;;;;5071968;28;19925;-68
2022/06/28 02:26:20;;;;;;;;;;;;;;;;;;5081967;28;19920;-68
2022/06/28 02:28:46;;;;;;;;;;;;;;;;;;5091371;28;19920;-68
2022/06/28 02:31:12;;;;;;;;;;;;;;;;;;5091963;28;19942;-68
2022/06/28 02:33:38;;;;;;;;;;;;;;;;;;5091980;28;20570;-68
2022/06/28 02:41:33;;;;;;;;;;;;;;;;;;5091894;28;20514;-68
2022/06/28 02:43:59;;;;;;;;;;;;;;;;;;5090913;28;19931;-68
2022/06/28 02:46:25;;;;;;;;;;;;;;;;;;5091812;28;20359;-68
2022/06/28 02:48:51;;;;;;;;;;;;;;;;;;5092010;28;20388;-68
2022/06/28 02:51:17;;;;;;;;;;;;;;;;;;5091182;28;20278;-68
2022/06/28 02:53:43;;;;;;;;;;;;;;;;;;5091806;28;19924;-68
2022/06/28 02:56:09;;;;;;;;;;;;;;;;;;5091821;28;19931;-68
2022/06/28 02:58:35;;;;;;;;;;;;;;;;;;5091065;28;19920;-68
2022/06/28 03:01:01;;;;;;;;;;;;;;;;;;5091773;28;19942;-68
2022/06/28 03:03:27;;;;;;;;;;;;;;;;;;5091799;28;19970;-68
2022/06/28 03:05:52;;;;;;;;;;;;;;;;;;5091090;28;20020;-68
2022/06/28 03:08:18;;;;;;;;;;;;;;;;;;5091772;28;19928;-68
2022/06/28 03:10:44;;;;;;;;;;;;;;;;;;5091677;28;20074;-68
2022/06/28 03:13:10;;;;;;;;;;;;;;;;;;5091129;28;20055;-68
2022/06/28 03:15:36;;;;;;;;;;;;;;;;;;5095030;28;19979;-68
2022/06/28 03:18:02;;;;;;;;;;;;;;;;;;5095460;28;19928;-68
2022/06/28 03:20:28;;;;;;;;;;;;;;;;;;5094585;28;19975;-68
2022/06/28 03:22:54;;;;;;;;;;;;;;;;;;5095344;28;20057;-68
2022/06/28 03:25:20;;;;;;;;;;;;;;;;;;5093152;28;19960;-68
2022/06/28 03:27:46;;;;;;;;;;;;;;;;;;5074384;28;19943;-68
2022/06/28 03:30:12;;;;;;;;;;;;;;;;;;5074807;28;20322;-68
2022/06/28 03:32:38;;;;;;;;;;;;;;;;;;5073519;28;19920;-68
2022/06/28 03:35:04;;;;;;;;;;;;;;;;;;5074306;28;19932;-68
2022/06/28 03:37:30;;;;;;;;;;;;;;;;;;5074550;28;20030;-68
2022/06/28 03:39:56;;;;;;;;;;;;;;;;;;5074786;28;19921;-68
2022/06/28 03:42:23;;;;;;;;;;;;;;;;;;5073948;28;19928;-68
2022/06/28 03:44:48;;;;;;;;;;;;;;;;;;5074287;28;19931;-68
2022/06/28 03:47:14;;;;;;;;;;;;;;;;;;5074675;28;20050;-68
2022/06/28 03:49:40;;;;;;;;;;;;;;;;;;5073996;28;19990;-68
2022/06/28 03:52:07;;;;;;;;;;;;;;;;;;5074473;28;19920;-68
2022/06/28 03:54:33;;;;;;;;;;;;;;;;;;5074473;28;19931;-68
2022/06/28 03:56:59;;;;;;;;;;;;;;;;;;5073442;28;19925;-68
2022/06/28 03:59:25;;;;;;;;;;;;;;;;;;5074363;28;19921;-68
2022/06/28 04:01:51;;;;;;;;;;;;;;;;;;5074265;28;19991;-68
2022/06/28 04:04:17;;;;;;;;;;;;;;;;;;5073508;28;19920;-68
2022/06/28 04:06:43;;;;;;;;;;;;;;;;;;5074407;28;19927;-68
2022/06/28 04:09:09;;;;;;;;;;;;;;;;;;5074368;28;19960;-68
2022/06/28 04:11:36;;;;;;;;;;;;;;;;;;5071829;28;19920;-68
2022/06/28 04:14:02;;;;;;;;;;;;;;;;;;5073626;28;19974;-68
2022/06/28 04:16:28;;;;;;;;;;;;;;;;;;5073897;28;19924;-68
2022/06/28 04:18:54;;;;;;;;;;;;;;;;;;5072962;28;20030;-68
2022/06/28 04:21:20;;;;;;;;;;;;;;;;;;5073587;28;19920;-68
2022/06/28 04:23:46;;;;;;;;;;;;;;;;;;5073746;28;19921;-68
2022/06/28 04:26:12;;;;;;;;;;;;;;;;;;5081366;28;19924;-68
2022/06/28 04:28:38;;;;;;;;;;;;;;;;;;5094220;28;20423;-68
2022/06/28 04:31:04;;;;;;;;;;;;;;;;;;5093917;28;19924;-68
2022/06/28 04:33:30;;;;;;;;;;;;;;;;;;5093317;28;20394;-68
2022/06/28 04:35:56;;;;;;;;;;;;;;;;;;5093885;28;20010;-68
2022/06/28 04:38:22;;;;;;;;;;;;;;;;;;5094023;28;19920;-68
2022/06/28 04:40:48;;;;;;;;;;;;;;;;;;5093168;28;19924;-68
2022/06/28 04:43:14;;;;;;;;;;;;;;;;;;5093497;28;19924;-68
2022/06/28 04:45:40;;;;;;;;;;;;;;;;;;5092160;28;19920;-68
2022/06/28 04:48:05;;;;;;;;;;;;;;;;;;5092960;28;20415;-68
2022/06/28 04:50:31;;;;;;;;;;;;;;;;;;5092190;28;19942;-68
2022/06/28 04:52:57;;;;;;;;;;;;;;;;;;5093514;28;19920;-68
2022/06/28 04:55:23;;;;;;;;;;;;;;;;;;5092795;28;19924;-68
2022/06/28 04:57:49;;;;;;;;;;;;;;;;;;5092297;28;20492;-68
2022/06/28 05:00:15;;;;;;;;;;;;;;;;;;5091722;28;19942;-68
2022/06/28 05:02:41;;;;;;;;;;;;;;;;;;5091398;28;19920;-68
2022/06/28 05:05:07;;;;;;;;;;;;;;;;;;5092863;28;19970;-68
2022/06/28 05:07:33;;;;;;;;;;;;;;;;;;5093177;28;19923;-68
2022/06/28 05:09:59;;;;;;;;;;;;;;;;;;5093083;28;19920;-68
2022/06/28 05:12:25;;;;;;;;;;;;;;;;;;5092467;28;19927;-68
2022/06/28 05:14:51;;;;;;;;;;;;;;;;;;5093235;28;20078;-68
2022/06/28 05:17:17;;;;;;;;;;;;;;;;;;5092983;28;20033;-68
2022/06/28 05:19:43;;;;;;;;;;;;;;;;;;5092229;28;19928;-68
2022/06/28 05:22:09;;;;;;;;;;;;;;;;;;5092953;28;19973;-68
2022/06/28 05:24:35;;;;;;;;;;;;;;;;;;5092801;28;19934;-68
2022/06/28 05:27:00;;;;;;;;;;;;;;;;;;5075873;28;20360;-68
2022/06/28 05:29:27;;;;;;;;;;;;;;;;;;5072608;28;19927;-68
2022/06/28 05:31:53;;;;;;;;;;;;;;;;;;5072367;28;19927;-68
2022/06/28 05:34:19;;;;;;;;;;;;;;;;;;5071637;28;19920;-68
2022/06/28 05:36:45;;;;;;;;;;;;;;;;;;5072101;28;20430;-68
2022/06/28 05:39:11;;;;;;;;;;;;;;;;;;5072637;28;20263;-68
2022/06/28 05:41:37;;;;;;;;;;;;;;;;;;5071446;28;19921;-68
2022/06/28 05:44:04;;;;;;;;;;;;;;;;;;5071930;28;19928;-68
2022/06/28 05:46:29;;;;;;;;;;;;;;;;;;5072323;28;19920;-68
2022/06/28 05:48:55;;;;;;;;;;;;;;;;;;5071521;28;19927;-68
2022/06/28 05:51:21;;;;;;;;;;;;;;;;;;5075027;28;19920;-69
2022/06/28 05:53:47;;;;;;;;;;;;;;;;;;5098949;28;19920;-68
2022/06/28 05:56:13;;;;;;;;;;;;;;;;;;5111665;28;19930;-69
2022/06/28 05:58:39;;;;;;;;;;;;;;;;;;5112053;28;20349;-68
2022/06/28 06:01:05;;;;;;;;;;;;;;;;;;5112187;28;19946;-68
2022/06/28 06:03:32;;;;;;;;;;;;;;;;;;5084455;28;19924;-68
2022/06/28 06:05:58;;;;;;;;;;;;;;;;;;5082873;28;19955;-68
2022/06/28 06:08:24;;;;;;;;;;;;;;;;;;5071915;28;19971;-68
2022/06/28 06:10:50;;;;;;;;;;;;;;;;;;5101916;28;19954;-68
2022/06/28 06:13:16;;;;;;;;;;;;;;;;;;5111977;28;19943;-68
2022/06/28 06:15:42;;;;;;;;;;;;;;;;;;5109890;28;19920;-68
2022/06/28 06:18:08;;;;;;;;;;;;;;;;;;5099724;28;19993;-67
2022/06/28 06:20:34;;;;;;;;;;;;;;;;;;5092027;28;19927;-67
2022/06/28 06:23:00;;;;;;;;;;;;;;;;;;5091652;28;19943;-68
2022/06/28 06:25:26;;;;;;;;;;;;;;;;;;5093579;28;20050;-69
2022/06/28 06:27:52;;;;;;;;;;;;;;;;;;5105926;28;19924;-70
2022/06/28 06:30:18;;;;;;;;;;;;;;;;;;5095865;28;20281;-70
2022/06/28 06:32:44;;;;;;;;;;;;;;;;;;5085785;28;19921;-70
2022/06/28 06:35:10;;;;;;;;;;;;;;;;;;5080643;28;20563;-69
2022/06/28 06:37:36;;;;;;;;;;;;;;;;;;5086438;28;19924;-68
2022/06/28 06:40:02;;;;;;;;;;;;;;;;;;5083319;28;19946;-69
2022/06/28 06:42:28;;;;;;;;;;;;;;;;;;5083224;28;19920;-67
2022/06/28 06:44:54;;;;;;;;;;;;;;;;;;5085954;28;20184;-69
2022/06/28 06:47:20;;;;;;;;;;;;;;;;;;5105255;28;19941;-69
2022/06/28 06:49:46;;;;;;;;;;;;;;;;;;5092325;28;19928;-69
2022/06/28 06:52:12;;;;;;;;;;;;;;;;;;5094766;28;20025;-70
2022/06/28 06:54:38;;;;;;;;;;;;;;;;;;5097087;28;19920;-68
2022/06/28 06:57:04;;;;;;;;;;;;;;;;;;5094644;28;20035;-69
2022/06/28 06:59:30;;;;;;;;;;;;;;;;;;5084491;28;19953;-70
2022/06/28 07:01:56;;;;;;;;;;;;;;;;;;5097580;28;20285;-69
2022/06/28 07:04:22;;;;;;;;;;;;;;;;;;5082120;28;20045;-66
2022/06/28 07:06:48;;;;;;;;;;;;;;;;;;5094624;28;19943;-68
2022/06/28 07:09:14;;;;;;;;;;;;;;;;;;5089642;28;19924;-68
2022/06/28 07:11:40;;;;;;;;;;;;;;;;;;5113233;28;20263;-69
2022/06/28 07:14:06;;;;;;;;;;;;;;;;;;5114741;28;19920;-69
2022/06/28 07:16:32;;;;;;;;;;;;;;;;;;5106781;28;19932;-69
2022/06/28 07:18:58;;;;;;;;;;;;;;;;;;5086797;28;19930;-70
2022/06/28 07:21:24;;;;;;;;;;;;;;;;;;5085041;28;19950;-69
2022/06/28 07:23:50;;;;;;;;;;;;;;;;;;5110990;28;20064;-70
2022/06/28 07:26:18;;;;;;;;;;;;;;;;;;5075185;28;20502;-71
2022/06/28 07:28:44;;;;;;;;;;;;;;;;;;5104479;28;19963;-69
2022/06/28 07:31:10;;;;;;;;;;;;;;;;;;5097989;28;19970;-70
2022/06/28 07:33:36;;;;;;;;;;;;;;;;;;5082705;28;19920;-70
2022/06/28 07:36:02;;;;;;;;;;;;;;;;;;5081615;28;19990;-71
2022/06/28 07:38:29;;;;;;;;;;;;;;;;;;5091328;28;19924;-70
2022/06/28 07:40:55;;;;;;;;;;;;;;;;;;5079006;28;20470;-72
2022/06/28 07:43:21;;;;;;;;;;;;;;;;;;5091473;28;19931;-73
2022/06/28 07:45:47;;;;;;;;;;;;;;;;;;5085516;28;19924;-72
2022/06/28 07:48:14;;;;;;;;;;;;;;;;;;5085761;28;19931;-68
2022/06/28 07:53:25;;;;;;;;;;;;;;;;;;5080999;28;20260;-68
2022/06/28 07:55:51;;;;;;;;;;;;;;;;;;5094602;28;19948;-68
2022/06/28 07:58:17;;;;;;;;;;;;;;;;;;5092813;28;19924;-68
2022/06/28 08:00:43;;;;;;;;;;;;;;;;;;5079630;28;19959;-68
2022/06/28 08:03:09;;;;;;;;;;;;;;;;;;5083852;28;20515;-65
2022/06/28 08:05:34;;;;;;;;;;;;;;;;;;5085637;28;19982;-65
2022/06/28 08:08:00;;;;;;;;;;;;;;;;;;5091255;28;19963;-65
2022/06/28 08:10:26;;;;;;;;;;;;;;;;;;5091787;28;19954;-68
2022/06/28 08:12:52;;;;;;;;;;;;;;;;;;5088988;28;19924;-66
2022/06/28 08:15:18;;;;;;;;;;;;;;;;;;5086939;28;19920;-66
2022/06/28 08:17:44;;;;;;;;;;;;;;;;;;5092256;28;20406;-66
2022/06/28 08:20:10;;;;;;;;;;;;;;;;;;5080706;28;19921;-67
2022/06/28 08:22:36;;;;;;;;;;;;;;;;;;5090841;28;19920;-66
2022/06/28 08:25:02;;;;;;;;;;;;;;;;;;5105736;28;19924;-67
2022/06/28 08:27:28;;;;;;;;;;;;;;;;;;5102915;28;19977;-68
2022/06/28 08:29:54;;;;;;;;;;;;;;;;;;5082113;28;19932;-66
2022/06/28 08:32:23;;;;;;;;;;;;;;;;;;5103203;28;20064;-66
2022/06/28 08:34:49;;;;;;;;;;;;;;;;;;5082338;28;19964;-65
2022/06/28 08:37:15;;;;;;;;;;;;;;;;;;5087514;28;19959;-65
2022/06/28 08:39:41;;;;;;;;;;;;;;;;;;5094648;28;19927;-65
2022/06/28 08:42:07;;;;;;;;;;;;;;;;;;5098736;28;19977;-65
2022/06/28 08:44:33;;;;;;;;;;;;;;;;;;5090134;28;19987;-65
2022/06/28 08:46:59;;;;;;;;;;;;;;;;;;5082183;28;19928;-66
2022/06/28 08:49:25;;;;;;;;;;;;;;;;;;5091344;28;19935;-65
2022/06/28 08:51:51;;;;;;;;;;;;;;;;;;5087973;28;20014;-66
2022/06/28 08:54:17;;;;;;;;;;;;;;;;;;5084085;28;20020;-66
2022/06/28 08:56:43;;;;;;;;;;;;;;;;;;5099749;28;19932;-65
2022/06/28 08:59:09;;;;;;;;;;;;;;;;;;5078995;28;19977;-66
2022/06/28 09:01:35;;;;;;;;;;;;;;;;;;5076465;28;19971;-68
2022/06/28 09:04:01;;;;;;;;;;;;;;;;;;5084899;28;20070;-65
2022/06/28 09:06:27;;;;;;;;;;;;;;;;;;5084271;28;19920;-65
2022/06/28 09:08:52;;;;;;;;;;;;;;;;;;5075395;28;19924;-65
2022/06/28 09:11:18;;;;;;;;;;;;;;;;;;5099031;28;20030;-65
2022/06/28 09:13:44;;;;;;;;;;;;;;;;;;5105050;28;19946;-64
2022/06/28 09:16:11;;;;;;;;;;;;;;;;;;5095340;28;19927;-65
2022/06/28 09:18:37;;;;;;;;;;;;;;;;;;5084483;28;19924;-65
2022/06/28 09:21:03;;;;;;;;;;;;;;;;;;5090043;28;19993;-66
2022/06/28 09:23:29;;;;;;;;;;;;;;;;;;5096553;28;20530;-67
2022/06/28 09:25:56;;;;;;;;;;;;;;;;;;5104016;28;19924;-66
2022/06/28 09:28:22;;;;;;;;;;;;;;;;;;5100336;28;19924;-66
2022/06/28 09:30:48;;;;;;;;;;;;;;;;;;5082942;28;19942;-66
2022/06/28 09:33:14;;;;;;;;;;;;;;;;;;5096477;28;20346;-65
2022/06/28 09:35:40;;;;;;;;;;;;;;;;;;5094421;28;19930;-66
2022/06/28 09:38:06;;;;;;;;;;;;;;;;;;5081483;28;19972;-66
2022/06/28 09:40:32;;;;;;;;;;;;;;;;;;5082062;28;19967;-66
2022/06/28 09:42:58;;;;;;;;;;;;;;;;;;5089503;28;20003;-66
2022/06/28 09:45:24;;;;;;;;;;;;;;;;;;5096806;28;20022;-65
2022/06/28 09:47:50;;;;;;;;;;;;;;;;;;5086053;28;20554;-66
2022/06/28 09:50:16;;;;;;;;;;;;;;;;;;5081267;28;20150;-66
2022/06/28 09:52:42;;;;;;;;;;;;;;;;;;5076568;28;19924;-66
2022/06/28 09:55:09;;;;;;;;;;;;;;;;;;5084865;28;19928;-66
2022/06/28 09:57:35;;;;;;;;;;;;;;;;;;5078151;28;20382;-65
2022/06/28 10:00:01;;;;;;;;;;;;;;;;;;5086063;28;20018;-68
2022/06/28 10:02:27;;;;;;;;;;;;;;;;;;5089956;28;19924;-66
2022/06/28 10:04:53;;;;;;;;;;;;;;;;;;5096241;28;19986;-67
2022/06/28 10:07:19;;;;;;;;;;;;;;;;;;5078736;28;19970;-66
2022/06/28 10:09:45;;;;;;;;;;;;;;;;;;5080382;28;19970;-67
2022/06/28 10:15:02;;;;;;;;;;;;;;;;;;5088794;28;20351;-67
2022/06/28 10:17:29;;;;;;;;;;;;;;;;;;5079361;28;19994;-67
2022/06/28 10:19:55;;;;;;;;;;;;;;;;;;5078481;28;20346;-67
2022/06/28 10:22:21;;;;;;;;;;;;;;;;;;5081583;28;19924;-66
2022/06/28 10:24:47;;;;;;;;;;;;;;;;;;5077009;28;20058;-66
2022/06/28 10:27:13;;;;;;;;;;;;;;;;;;5070979;28;19997;-66
2022/06/28 10:29:39;;;;;;;;;;;;;;;;;;5092591;28;19975;-66
2022/06/28 10:32:04;;;;;;;;;;;;;;;;;;5085247;28;19928;-66
2022/06/28 10:34:30;;;;;;;;;;;;;;;;;;5082835;28;20031;-65
2022/06/28 10:36:56;;;;;;;;;;;;;;;;;;5076022;28;19932;-66
2022/06/28 10:39:22;;;;;;;;;;;;;;;;;;5087169;28;20022;-68
2022/06/28 10:41:48;;;;;;;;;;;;;;;;;;5086908;28;19942;-68
2022/06/28 10:44:15;;;;;;;;;;;;;;;;;;5086118;28;20756;-66
2022/06/28 10:46:41;;;;;;;;;;;;;;;;;;5078630;28;20007;-65
2022/06/28 10:49:07;;;;;;;;;;;;;;;;;;5085926;28;20059;-65
2022/06/28 10:51:33;;;;;;;;;;;;;;;;;;5080104;28;19920;-66
2022/06/28 10:54:08;;;;;;;;;;;;;;;;;;5107929;28;19955;-65
2022/06/28 10:56:34;;;;;;;;;;;;;;;;;;5080710;28;20274;-65
2022/06/28 10:59:02;;;;;;;;;;;;;;;;;;5071514;28;19924;-66
2022/06/28 11:01:28;;;;;;;;;;;;;;;;;;5082760;28;19970;-66
2022/06/28 11:03:54;;;;;;;;;;;;;;;;;;5080908;28;19920;-66
2022/06/28 11:06:20;;;;;;;;;;;;;;;;;;5082679;28;19931;-66
2022/06/28 11:08:46;;;;;;;;;;;;;;;;;;5097399;28;19919;-66
2022/06/28 11:11:12;;;;;;;;;;;;;;;;;;5095206;28;20032;-66
2022/06/28 11:13:38;;;;;;;;;;;;;;;;;;5110297;28;19955;-67
2022/06/28 11:16:04;;;;;;;;;;;;;;;;;;5092947;28;19924;-67
2022/06/28 11:18:30;;;;;;;;;;;;;;;;;;5072257;28;20003;-66
2022/06/28 11:20:56;;;;;;;;;;;;;;;;;;5097764;28;19990;-66
2022/06/28 11:23:22;;;;;;;;;;;;;;;;;;5076316;28;19924;-66
2022/06/28 11:28:33;;;;;;;;;;;;;;;;;;5077498;28;20345;-66
2022/06/28 11:30:59;;;;;;;;;;;;;;;;;;5078019;28;19931;-66
2022/06/28 11:33:25;;;;;;;;;;;;;;;;;;5084309;28;20032;-66
2022/06/28 11:35:51;;;;;;;;;;;;;;;;;;5082390;28;19924;-66
2022/06/28 11:38:18;;;;;;;;;;;;;;;;;;5084127;28;19947;-66
2022/06/28 11:40:45;;;;;;;;;;;;;;;;;;5086708;28;20315;-67
2022/06/28 11:43:11;;;;;;;;;;;;;;;;;;5082135;28;19944;-67
2022/06/28 11:45:37;;;;;;;;;;;;;;;;;;5086358;28;19920;-66
2022/06/28 11:48:03;;;;;;;;;;;;;;;;;;5089382;28;19924;-66
2022/06/28 11:50:29;;;;;;;;;;;;;;;;;;5082392;28;20526;-65
2022/06/28 11:52:55;;;;;;;;;;;;;;;;;;5083400;28;19969;-65
2022/06/28 11:55:21;;;;;;;;;;;;;;;;;;5081552;28;19973;-65
2022/06/28 11:57:47;;;;;;;;;;;;;;;;;;5083411;28;19924;-65
2022/06/28 12:00:15;;;;;;;;;;;;;;;;;;5095631;28;19954;-65
2022/06/28 12:02:41;;;;;;;;;;;;;;;;;;5079926;28;19934;-66
2022/06/28 12:05:07;;;;;;;;;;;;;;;;;;5083927;28;19920;-66
2022/06/28 12:07:33;;;;;;;;;;;;;;;;;;5087575;28;19977;-66
2022/06/28 12:09:59;;;;;;;;;;;;;;;;;;5079020;28;20540;-65
2022/06/28 12:12:26;;;;;;;;;;;;;;;;;;5097287;28;19931;-65
2022/06/28 12:14:52;;;;;;;;;;;;;;;;;;5079223;28;20271;-65
2022/06/28 12:17:18;;;;;;;;;;;;;;;;;;5096650;28;19931;-66
2022/06/28 12:19:43;;;;;;;;;;;;;;;;;;5086112;28;20101;-66
2022/06/28 12:22:09;;;;;;;;;;;;;;;;;;5092622;28;19943;-65
2022/06/28 12:24:35;;;;;;;;;;;;;;;;;;5096706;28;20070;-65
2022/06/28 12:27:01;;;;;;;;;;;;;;;;;;5080126;28;20315;-66
2022/06/28 12:29:27;;;;;;;;;;;;;;;;;;5107794;28;19952;-66
2022/06/28 12:31:54;;;;;;;;;;;;;;;;;;5090050;28;19924;-65
2022/06/28 12:34:20;;;;;;;;;;;;;;;;;;5081435;28;19993;-66
2022/06/28 12:36:45;;;;;;;;;;;;;;;;;;5081189;28;19990;-66
2022/06/28 12:39:11;;;;;;;;;;;;;;;;;;5091404;28;19920;-66
2022/06/28 12:41:37;;;;;;;;;;;;;;;;;;5088002;28;20073;-65
2022/06/28 12:44:03;;;;;;;;;;;;;;;;;;5086785;28;21686;-66
2022/06/28 12:46:29;;;;;;;;;;;;;;;;;;5085970;28;19920;-67
2022/06/28 12:48:55;;;;;;;;;;;;;;;;;;5102780;28;19930;-66
2022/06/28 12:51:21;;;;;;;;;;;;;;;;;;5087565;28;19928;-66
2022/06/28 12:53:47;;;;;;;;;;;;;;;;;;5111548;28;19920;-65
2022/06/28 12:56:15;;;;;;;;;;;;;;;;;;5093616;28;19958;-67
2022/06/28 12:58:42;;;;;;;;;;;;;;;;;;5081109;28;20011;-66
2022/06/28 13:01:08;;;;;;;;;;;;;;;;;;5101508;28;20377;-67
2022/06/28 13:03:34;;;;;;;;;;;;;;;;;;5089889;28;19924;-66
2022/06/28 13:06:00;;;;;;;;;;;;;;;;;;5075573;28;20089;-66
2022/06/28 13:08:26;;;;;;;;;;;;;;;;;;5092695;28;19920;-66
2022/06/28 13:10:52;;;;;;;;;;;;;;;;;;5079487;28;19982;-66
2022/06/28 13:13:20;;;;;;;;;;;;;;;;;;5095921;28;19930;-67
2022/06/28 13:15:46;;;;;;;;;;;;;;;;;;5084740;28;19923;-65
2022/06/28 13:18:12;;;;;;;;;;;;;;;;;;5110376;28;20615;-66
2022/06/28 13:20:38;;;;;;;;;;;;;;;;;;5097176;28;20018;-65
2022/06/28 13:23:04;;;;;;;;;;;;;;;;;;5110257;28;19920;-67
2022/06/28 13:25:30;;;;;;;;;;;;;;;;;;5092725;28;19930;-66
2022/06/28 13:27:56;;;;;;;;;;;;;;;;;;5080243;28;19919;-66
2022/06/28 13:30:22;;;;;;;;;;;;;;;;;;5090762;28;19931;-66
2022/06/28 13:32:48;;;;;;;;;;;;;;;;;;5094643;28;19920;-66
2022/06/28 13:35:14;;;;;;;;;;;;;;;;;;5083216;28;19924;-67
2022/06/28 13:37:42;;;;;;;;;;;;;;;;;;5086131;28;19971;-67
2022/06/28 13:40:07;;;;;;;;;;;;;;;;;;5085047;28;19920;-67
2022/06/28 13:42:33;;;;;;;;;;;;;;;;;;5093587;28;20599;-66
2022/06/28 13:44:59;;;;;;;;;;;;;;;;;;5100821;28;19931;-66
2022/06/28 13:47:25;;;;;;;;;;;;;;;;;;5090544;28;19982;-66
2022/06/28 13:49:51;;;;;;;;;;;;;;;;;;5084950;28;21033;-66
2022/06/28 13:52:17;;;;;;;;;;;;;;;;;;5081473;28;19955;-66
2022/06/28 13:54:43;;;;;;;;;;;;;;;;;;5099396;28;19970;-66
2022/06/28 13:57:09;;;;;;;;;;;;;;;;;;5085709;28;19924;-66
2022/06/28 13:59:35;;;;;;;;;;;;;;;;;;5080709;28;19924;-68
2022/06/28 14:02:01;;;;;;;;;;;;;;;;;;5094540;28;19928;-68
2022/06/28 14:04:27;;;;;;;;;;;;;;;;;;5076481;28;19948;-68
2022/06/28 14:06:53;;;;;;;;;;;;;;;;;;5076005;28;19927;-68
2022/06/28 14:09:19;;;;;;;;;;;;;;;;;;5083926;28;19928;-67
2022/06/28 14:11:45;;;;;;;;;;;;;;;;;;5082748;28;19924;-67
2022/06/28 14:14:11;;;;;;;;;;;;;;;;;;5106442;28;19920;-66
2022/06/28 14:16:37;;;;;;;;;;;;;;;;;;5108903;28;20370;-65
2022/06/28 14:19:03;;;;;;;;;;;;;;;;;;5099780;28;19920;-65
2022/06/28 14:21:30;;;;;;;;;;;;;;;;;;5084781;28;20385;-66
2022/06/28 14:23:56;;;;;;;;;;;;;;;;;;5091660;28;19927;-65
2022/06/28 14:26:22;;;;;;;;;;;;;;;;;;5094439;28;19920;-65
2022/06/28 14:28:49;;;;;;;;;;;;;;;;;;5094275;28;19998;-65
2022/06/28 14:31:15;;;;;;;;;;;;;;;;;;5096386;28;20003;-65
2022/06/28 14:33:41;;;;;;;;;;;;;;;;;;5100686;28;20052;-65
2022/06/28 14:36:07;;;;;;;;;;;;;;;;;;5092739;28;20001;-65
2022/06/28 14:38:33;;;;;;;;;;;;;;;;;;5106801;28;19970;-65
2022/06/28 14:40:59;;;;;;;;;;;;;;;;;;5089830;28;20042;-65
2022/06/28 14:43:25;;;;;;;;;;;;;;;;;;5081636;28;19924;-65
2022/06/28 14:45:51;;;;;;;;;;;;;;;;;;5081044;28;19924;-65
2022/06/28 14:48:17;;;;;;;;;;;;;;;;;;5082232;28;19921;-65
2022/06/28 14:50:42;;;;;;;;;;;;;;;;;;5080834;28;19928;-65
2022/06/28 14:53:12;;;;;;;;;;;;;;;;;;5089063;28;20003;-65
2022/06/28 14:55:38;;;;;;;;;;;;;;;;;;5082687;28;19978;-65
2022/06/28 14:58:04;;;;;;;;;;;;;;;;;;5086526;28;19925;-65
2022/06/28 15:00:30;;;;;;;;;;;;;;;;;;5101348;28;19927;-65
2022/06/28 15:02:56;;;;;;;;;;;;;;;;;;5110198;28;20382;-65
2022/06/28 15:05:22;;;;;;;;;;;;;;;;;;5093486;28;19971;-65
2022/06/28 15:07:49;;;;;;;;;;;;;;;;;;5093510;28;19963;-65
2022/06/28 15:10:15;;;;;;;;;;;;;;;;;;5112185;28;19930;-65
2022/06/28 15:12:41;;;;;;;;;;;;;;;;;;5114959;28;19920;-65
2022/06/28 15:15:07;;;;;;;;;;;;;;;;;;5115180;28;19924;-65
2022/06/28 15:17:33;;;;;;;;;;;;;;;;;;5114561;28;20343;-66
2022/06/28 15:19:59;;;;;;;;;;;;;;;;;;5115335;28;19998;-66
2022/06/28 15:30:54;;;;;;;;;;;;;;;;;;5115351;28;20275;-66
2022/06/28 15:33:20;;;;;;;;;;;;;;;;;;5113870;28;19926;-66
2022/06/28 15:35:46;;;;;;;;;;;;;;;;;;5114653;28;19927;-66
2022/06/28 15:38:12;;;;;;;;;;;;;;;;;;5115116;28;19928;-66
2022/06/28 15:40:38;;;;;;;;;;;;;;;;;;5113990;28;19927;-66
2022/06/28 15:43:04;;;;;;;;;;;;;;;;;;5114451;28;20386;-66
2022/06/28 15:45:30;;;;;;;;;;;;;;;;;;5114463;28;19919;-66
2022/06/28 15:47:56;;;;;;;;;;;;;;;;;;5114185;28;20014;-66
2022/06/28 15:50:22;;;;;;;;;;;;;;;;;;5114975;27;19924;-66
2022/06/28 15:52:48;;;;;;;;;;;;;;;;;;5114330;28;19920;-66
2022/06/28 15:55:14;;;;;;;;;;;;;;;;;;5114356;28;19959;-66
2022/06/28 15:57:40;;;;;;;;;;;;;;;;;;5114623;28;19966;-66
2022/06/28 16:00:06;;;;;;;;;;;;;;;;;;5114583;28;19920;-66
2022/06/28 16:02:32;;;;;;;;;;;;;;;;;;5114120;28;20654;-66
2022/06/28 16:04:58;;;;;;;;;;;;;;;;;;5113751;28;19926;-66
2022/06/28 16:07:24;;;;;;;;;;;;;;;;;;5114824;28;19926;-66
2022/06/28 16:09:50;;;;;;;;;;;;;;;;;;5113718;28;19920;-66
2022/06/28 16:12:51;;;;;;;;;;;;;;;;;;5110086;28;20303;-66
2022/06/28 16:15:05;;;;;;;;;;;;;;;;;;5092996;28;19945;-66
2022/06/28 16:17:31;;;;;;;;;;;;;;;;;;5097730;28;19924;-66
2022/06/28 16:19:57;;;;;;;;;;;;;;;;;;5094013;28;19924;-66
2022/06/28 16:22:22;;;;;;;;;;;;;;;;;;5093020;28;19931;-66
2022/06/28 16:24:48;;;;;;;;;;;;;;;;;;5093095;28;19924;-67
2022/06/28 16:27:14;;;;;;;;;;;;;;;;;;5093963;28;19963;-66
2022/06/28 16:29:40;;;;;;;;;;;;;;;;;;5092756;28;20024;-66
2022/06/28 16:32:06;;;;;;;;;;;;;;;;;;5092983;28;19920;-66
2022/06/28 16:34:32;;;;;;;;;;;;;;;;;;5094003;28;20015;-66
2022/06/28 16:36:58;;;;;;;;;;;;;;;;;;5093695;28;19968;-66
2022/06/28 16:39:24;;;;;;;;;;;;;;;;;;5093404;28;19920;-66
2022/06/28 16:41:50;;;;;;;;;;;;;;;;;;5093734;28;19920;-66
2022/06/28 16:44:16;;;;;;;;;;;;;;;;;;5093217;28;20003;-66
2022/06/28 16:46:42;;;;;;;;;;;;;;;;;;5093192;28;20012;-66
2022/06/28 16:49:09;;;;;;;;;;;;;;;;;;5093845;28;19972;-66
2022/06/28 16:51:35;;;;;;;;;;;;;;;;;;5093644;28;19989;-66
2022/06/28 16:54:01;;;;;;;;;;;;;;;;;;5093199;28;20365;-66
2022/06/28 16:56:27;;;;;;;;;;;;;;;;;;5093429;28;20002;-66
2022/06/28 16:58:53;;;;;;;;;;;;;;;;;;5093525;28;19930;-66
2022/06/28 17:01:19;;;;;;;;;;;;;;;;;;5092387;28;19924;-66